sensor_id;sensor_type;location;lat;lon;timestamp;pressure;altitude;pressure_sealevel;temperature;humidity
27014;BME280;14556;52.222;4.510;2023-07-02T00:02:15;99921.59;;;15.18;100.00
27014;BME280;14556;52.222;4.510;2023-07-02T00:04:43;99926.81;;;15.25;100.00
27014;BME280;14556;52.222;4.510;2023-07-02T00:07:10;99937.94;;;15.34;100.00
27014;BME280;14556;52.222;4.510;2023-07-02T00:09:36;99930.28;;;15.26;100.00
27014;BME280;14556;52.222;4.510;2023-07-02T00:12:03;99931.00;;;15.16;100.00
27014;BME280;14556;52.222;4.510;2023-07-02T00:14:30;99924.44;;;15.06;100.00
27014;BME280;14556;52.222;4.510;2023-07-02T00:16:56;99928.50;;;15.09;100.00
27014;BME280;14556;52.222;4.510;2023-07-02T00:19:23;99927.06;;;15.01;100.00
27014;BME280;14556;52.222;4.510;2023-07-02T00:21:49;99916.66;;;14.88;100.00
27014;BME280;14556;52.222;4.510;2023-07-02T00:24:16;99928.31;;;14.93;100.00
27014;BME280;14556;52.222;4.510;2023-07-02T00:26:42;99944.53;;;14.98;100.00
27014;BME280;14556;52.222;4.510;2023-07-02T00:29:09;99929.44;;;14.97;100.00
27014;BME280;14556;52.222;4.510;2023-07-02T00:31:36;99936.22;;;15.00;100.00
27014;BME280;14556;52.222;4.510;2023-07-02T00:34:03;99930.31;;;15.03;100.00
27014;BME280;14556;52.222;4.510;2023-07-02T00:36:31;99931.19;;;15.09;100.00
27014;BME280;14556;52.222;4.510;2023-07-02T00:38:58;99926.69;;;15.15;100.00
27014;BME280;14556;52.222;4.510;2023-07-02T00:41:25;99922.25;;;15.03;100.00
27014;BME280;14556;52.222;4.510;2023-07-02T00:43:52;99922.50;;;15.02;100.00
27014;BME280;14556;52.222;4.510;2023-07-02T00:46:22;99923.84;;;15.04;100.00
27014;BME280;14556;52.222;4.510;2023-07-02T00:48:53;99920.31;;;14.98;100.00
27014;BME280;14556;52.222;4.510;2023-07-02T00:51:25;99915.59;;;15.11;100.00
27014;BME280;14556;52.222;4.510;2023-07-02T00:53:54;99922.75;;;15.00;100.00
27014;BME280;14556;52.222;4.510;2023-07-02T00:56:22;99927.81;;;14.96;100.00
27014;BME280;14556;52.222;4.510;2023-07-02T00:58:50;99914.16;;;14.81;100.00
27014;BME280;14556;52.222;4.510;2023-07-02T01:01:22;99918.63;;;14.75;100.00
27014;BME280;14556;52.222;4.510;2023-07-02T01:06:23;99930.53;;;14.79;100.00
27014;BME280;14556;52.222;4.510;2023-07-02T01:08:57;99924.53;;;14.72;100.00
27014;BME280;14556;52.222;4.510;2023-07-02T01:11:29;99935.44;;;14.82;100.00
27014;BME280;14556;52.222;4.510;2023-07-02T01:14:07;99927.03;;;14.79;100.00
27014;BME280;14556;52.222;4.510;2023-07-02T01:16:35;99932.91;;;14.75;100.00
27014;BME280;14556;52.222;4.510;2023-07-02T01:19:05;99936.72;;;14.80;100.00
27014;BME280;14556;52.222;4.510;2023-07-02T01:21:34;99926.06;;;14.68;100.00
27014;BME280;14556;52.222;4.510;2023-07-02T01:24:01;99930.41;;;14.69;100.00
27014;BME280;14556;52.222;4.510;2023-07-02T01:26:31;99929.19;;;14.59;100.00
27014;BME280;14556;52.222;4.510;2023-07-02T01:29:18;99930.28;;;14.58;100.00
27014;BME280;14556;52.222;4.510;2023-07-02T01:31:45;99929.63;;;14.51;100.00
27014;BME280;14556;52.222;4.510;2023-07-02T01:34:12;99946.81;;;14.50;100.00
27014;BME280;14556;52.222;4.510;2023-07-02T01:36:39;99939.91;;;14.54;100.00
27014;BME280;14556;52.222;4.510;2023-07-02T01:39:06;99926.75;;;14.58;100.00
27014;BME280;14556;52.222;4.510;2023-07-02T01:41:41;99927.25;;;14.55;100.00
27014;BME280;14556;52.222;4.510;2023-07-02T01:44:07;99923.25;;;14.57;100.00
27014;BME280;14556;52.222;4.510;2023-07-02T01:46:34;99936.38;;;14.54;100.00
27014;BME280;14556;52.222;4.510;2023-07-02T01:49:00;99928.47;;;14.47;100.00
27014;BME280;14556;52.222;4.510;2023-07-02T01:51:27;99929.28;;;14.65;100.00
27014;BME280;14556;52.222;4.510;2023-07-02T01:53:53;99923.06;;;14.64;100.00
27014;BME280;14556;52.222;4.510;2023-07-02T01:56:20;99917.06;;;14.57;100.00
27014;BME280;14556;52.222;4.510;2023-07-02T01:58:46;99922.69;;;14.55;100.00
27014;BME280;14556;52.222;4.510;2023-07-02T02:01:13;99927.91;;;14.45;100.00
27014;BME280;14556;52.222;4.510;2023-07-02T02:03:39;99931.75;;;14.49;100.00
27014;BME280;14556;52.222;4.510;2023-07-02T02:06:06;99933.16;;;14.52;100.00
27014;BME280;14556;52.222;4.510;2023-07-02T02:08:32;99937.44;;;14.53;100.00
27014;BME280;14556;52.222;4.510;2023-07-02T02:10:59;99944.06;;;14.45;100.00
27014;BME280;14556;52.222;4.510;2023-07-02T02:13:27;99926.97;;;14.34;100.00
27014;BME280;14556;52.222;4.510;2023-07-02T02:15:54;99937.06;;;14.26;100.00
27014;BME280;14556;52.222;4.510;2023-07-02T02:18:21;99935.44;;;14.25;100.00
27014;BME280;14556;52.222;4.510;2023-07-02T02:20:47;99938.13;;;14.25;100.00
27014;BME280;14556;52.222;4.510;2023-07-02T02:23:14;99951.66;;;14.31;100.00
27014;BME280;14556;52.222;4.510;2023-07-02T02:25:41;99950.28;;;14.28;100.00
27014;BME280;14556;52.222;4.510;2023-07-02T02:28:07;99945.91;;;14.22;100.00
27014;BME280;14556;52.222;4.510;2023-07-02T02:30:34;99943.22;;;14.22;100.00
27014;BME280;14556;52.222;4.510;2023-07-02T02:33:00;99959.88;;;14.24;100.00
27014;BME280;14556;52.222;4.510;2023-07-02T02:35:27;99965.19;;;14.19;100.00
27014;BME280;14556;52.222;4.510;2023-07-02T02:37:54;99970.47;;;14.13;100.00
27014;BME280;14556;52.222;4.510;2023-07-02T02:40:20;99961.94;;;14.17;100.00
27014;BME280;14556;52.222;4.510;2023-07-02T02:42:47;99966.91;;;14.08;100.00
27014;BME280;14556;52.222;4.510;2023-07-02T02:45:13;99972.84;;;14.10;100.00
27014;BME280;14556;52.222;4.510;2023-07-02T02:47:40;99969.53;;;14.02;100.00
27014;BME280;14556;52.222;4.510;2023-07-02T02:50:07;99973.84;;;14.04;100.00
27014;BME280;14556;52.222;4.510;2023-07-02T02:52:33;99972.91;;;13.98;100.00
27014;BME280;14556;52.222;4.510;2023-07-02T02:55:00;99964.19;;;13.90;100.00
27014;BME280;14556;52.222;4.510;2023-07-02T02:57:26;99982.22;;;13.90;100.00
27014;BME280;14556;52.222;4.510;2023-07-02T02:59:53;99965.75;;;13.86;100.00
27014;BME280;14556;52.222;4.510;2023-07-02T03:02:19;99981.97;;;13.92;100.00
27014;BME280;14556;52.222;4.510;2023-07-02T03:04:46;99977.00;;;14.00;100.00
27014;BME280;14556;52.222;4.510;2023-07-02T03:07:12;99975.84;;;13.96;100.00
27014;BME280;14556;52.222;4.510;2023-07-02T03:09:39;99977.09;;;14.06;100.00
27014;BME280;14556;52.222;4.510;2023-07-02T03:12:06;99968.78;;;13.90;100.00
27014;BME280;14556;52.222;4.510;2023-07-02T03:14:32;99986.03;;;13.94;100.00
27014;BME280;14556;52.222;4.510;2023-07-02T03:16:59;99985.06;;;13.83;100.00
27014;BME280;14556;52.222;4.510;2023-07-02T03:19:26;99970.31;;;13.86;100.00
27014;BME280;14556;52.222;4.510;2023-07-02T03:21:52;99967.38;;;13.87;100.00
27014;BME280;14556;52.222;4.510;2023-07-02T03:24:19;99976.09;;;13.95;100.00
27014;BME280;14556;52.222;4.510;2023-07-02T03:26:45;99979.44;;;13.85;100.00
27014;BME280;14556;52.222;4.510;2023-07-02T03:29:12;99977.69;;;13.78;100.00
27014;BME280;14556;52.222;4.510;2023-07-02T03:31:39;99984.38;;;13.76;100.00
27014;BME280;14556;52.222;4.510;2023-07-02T03:34:09;99974.81;;;13.68;100.00
27014;BME280;14556;52.222;4.510;2023-07-02T03:36:36;99993.38;;;13.70;100.00
27014;BME280;14556;52.222;4.510;2023-07-02T03:39:04;99985.00;;;13.66;100.00
27014;BME280;14556;52.222;4.510;2023-07-02T03:41:33;99981.75;;;13.64;100.00
27014;BME280;14556;52.222;4.510;2023-07-02T03:44:00;99987.94;;;13.64;100.00
27014;BME280;14556;52.222;4.510;2023-07-02T03:46:26;99986.31;;;13.63;100.00
27014;BME280;14556;52.222;4.510;2023-07-02T03:48:53;99989.81;;;13.64;100.00
27014;BME280;14556;52.222;4.510;2023-07-02T03:51:19;99998.22;;;13.68;100.00
27014;BME280;14556;52.222;4.510;2023-07-02T03:53:46;99995.03;;;13.71;100.00
27014;BME280;14556;52.222;4.510;2023-07-02T03:56:12;100003.09;;;13.71;100.00
27014;BME280;14556;52.222;4.510;2023-07-02T03:58:42;99994.78;;;13.72;100.00
27014;BME280;14556;52.222;4.510;2023-07-02T04:01:09;100006.06;;;13.57;100.00
27014;BME280;14556;52.222;4.510;2023-07-02T04:03:35;100014.00;;;13.64;100.00
27014;BME280;14556;52.222;4.510;2023-07-02T04:06:02;100010.28;;;13.53;100.00
27014;BME280;14556;52.222;4.510;2023-07-02T04:08:31;100008.75;;;13.57;100.00
27014;BME280;14556;52.222;4.510;2023-07-02T04:10:58;100023.59;;;13.60;100.00
27014;BME280;14556;52.222;4.510;2023-07-02T04:13:24;100012.97;;;13.53;100.00
27014;BME280;14556;52.222;4.510;2023-07-02T04:15:51;100032.13;;;13.57;100.00
27014;BME280;14556;52.222;4.510;2023-07-02T04:18:18;100026.50;;;13.58;100.00
27014;BME280;14556;52.222;4.510;2023-07-02T04:20:44;100007.72;;;13.46;100.00
27014;BME280;14556;52.222;4.510;2023-07-02T04:23:11;100024.75;;;13.52;100.00
27014;BME280;14556;52.222;4.510;2023-07-02T04:25:37;100026.63;;;13.63;100.00
27014;BME280;14556;52.222;4.510;2023-07-02T04:28:24;100026.88;;;13.50;100.00
27014;BME280;14556;52.222;4.510;2023-07-02T04:30:51;100033.59;;;13.64;100.00
27014;BME280;14556;52.222;4.510;2023-07-02T04:33:19;100010.63;;;13.57;100.00
27014;BME280;14556;52.222;4.510;2023-07-02T04:35:45;100020.66;;;13.61;100.00
27014;BME280;14556;52.222;4.510;2023-07-02T04:38:12;100031.31;;;13.56;100.00
27014;BME280;14556;52.222;4.510;2023-07-02T04:40:39;100025.81;;;13.51;100.00
27014;BME280;14556;52.222;4.510;2023-07-02T04:43:05;100014.72;;;13.47;100.00
27014;BME280;14556;52.222;4.510;2023-07-02T04:45:32;100035.06;;;13.55;100.00
27014;BME280;14556;52.222;4.510;2023-07-02T04:48:03;100033.06;;;13.62;100.00
27014;BME280;14556;52.222;4.510;2023-07-02T04:50:30;100035.50;;;13.64;100.00
27014;BME280;14556;52.222;4.510;2023-07-02T04:52:57;100036.53;;;13.63;100.00
27014;BME280;14556;52.222;4.510;2023-07-02T04:55:23;100038.03;;;13.71;100.00
27014;BME280;14556;52.222;4.510;2023-07-02T04:57:49;100049.81;;;13.70;100.00
27014;BME280;14556;52.222;4.510;2023-07-02T05:00:16;100049.59;;;13.71;100.00
27014;BME280;14556;52.222;4.510;2023-07-02T05:02:43;100051.47;;;13.71;100.00
27014;BME280;14556;52.222;4.510;2023-07-02T05:05:10;100042.00;;;13.68;100.00
27014;BME280;14556;52.222;4.510;2023-07-02T05:07:36;100062.91;;;13.78;100.00
27014;BME280;14556;52.222;4.510;2023-07-02T05:10:04;100052.94;;;13.78;100.00
27014;BME280;14556;52.222;4.510;2023-07-02T05:12:31;100057.66;;;13.71;100.00
27014;BME280;14556;52.222;4.510;2023-07-02T05:14:57;100055.53;;;13.73;100.00
27014;BME280;14556;52.222;4.510;2023-07-02T05:17:24;100061.75;;;13.74;100.00
27014;BME280;14556;52.222;4.510;2023-07-02T05:19:50;100070.72;;;13.80;100.00
27014;BME280;14556;52.222;4.510;2023-07-02T05:22:18;100058.97;;;13.69;100.00
27014;BME280;14556;52.222;4.510;2023-07-02T05:24:45;100076.69;;;13.70;100.00
27014;BME280;14556;52.222;4.510;2023-07-02T05:27:12;100076.56;;;13.76;100.00
27014;BME280;14556;52.222;4.510;2023-07-02T05:29:39;100070.97;;;13.78;100.00
27014;BME280;14556;52.222;4.510;2023-07-02T05:32:06;100071.06;;;13.83;100.00
27014;BME280;14556;52.222;4.510;2023-07-02T05:34:33;100080.50;;;13.86;100.00
27014;BME280;14556;52.222;4.510;2023-07-02T05:37:00;100086.91;;;13.97;100.00
27014;BME280;14556;52.222;4.510;2023-07-02T05:39:26;100097.66;;;13.97;100.00
27014;BME280;14556;52.222;4.510;2023-07-02T05:41:53;100096.59;;;13.98;100.00
27014;BME280;14556;52.222;4.510;2023-07-02T05:44:20;100087.50;;;13.99;100.00
27014;BME280;14556;52.222;4.510;2023-07-02T05:46:46;100088.03;;;14.01;100.00
27014;BME280;14556;52.222;4.510;2023-07-02T05:49:13;100093.75;;;14.05;100.00
27014;BME280;14556;52.222;4.510;2023-07-02T05:51:39;100094.34;;;14.07;100.00
27014;BME280;14556;52.222;4.510;2023-07-02T05:54:06;100100.88;;;14.11;100.00
27014;BME280;14556;52.222;4.510;2023-07-02T05:56:33;100100.72;;;14.18;100.00
27014;BME280;14556;52.222;4.510;2023-07-02T05:58:59;100099.09;;;14.17;100.00
27014;BME280;14556;52.222;4.510;2023-07-02T06:01:25;100093.06;;;14.09;100.00
27014;BME280;14556;52.222;4.510;2023-07-02T06:03:52;100104.00;;;14.20;100.00
27014;BME280;14556;52.222;4.510;2023-07-02T06:06:19;100096.97;;;14.19;100.00
27014;BME280;14556;52.222;4.510;2023-07-02T06:08:45;100103.84;;;14.26;100.00
27014;BME280;14556;52.222;4.510;2023-07-02T06:11:12;100104.97;;;14.31;100.00
27014;BME280;14556;52.222;4.510;2023-07-02T06:13:39;100108.34;;;14.38;100.00
27014;BME280;14556;52.222;4.510;2023-07-02T06:16:05;100103.19;;;14.36;100.00
27014;BME280;14556;52.222;4.510;2023-07-02T06:18:32;100096.91;;;14.31;100.00
27014;BME280;14556;52.222;4.510;2023-07-02T06:20:58;100116.03;;;14.46;100.00
27014;BME280;14556;52.222;4.510;2023-07-02T06:23:25;100114.22;;;14.52;100.00
27014;BME280;14556;52.222;4.510;2023-07-02T06:25:51;100122.63;;;14.56;100.00
27014;BME280;14556;52.222;4.510;2023-07-02T06:28:19;100123.22;;;14.58;100.00
27014;BME280;14556;52.222;4.510;2023-07-02T06:30:45;100126.22;;;14.61;100.00
27014;BME280;14556;52.222;4.510;2023-07-02T06:33:13;100118.25;;;14.67;100.00
27014;BME280;14556;52.222;4.510;2023-07-02T06:35:39;100120.53;;;14.75;100.00
27014;BME280;14556;52.222;4.510;2023-07-02T06:38:05;100123.47;;;14.73;100.00
27014;BME280;14556;52.222;4.510;2023-07-02T06:40:32;100120.03;;;14.78;100.00
27014;BME280;14556;52.222;4.510;2023-07-02T06:42:58;100123.22;;;14.75;100.00
27014;BME280;14556;52.222;4.510;2023-07-02T06:45:25;100130.56;;;14.80;100.00
27014;BME280;14556;52.222;4.510;2023-07-02T06:47:51;100134.06;;;14.80;100.00
27014;BME280;14556;52.222;4.510;2023-07-02T06:50:18;100131.00;;;14.89;100.00
27014;BME280;14556;52.222;4.510;2023-07-02T06:52:45;100132.78;;;15.00;100.00
27014;BME280;14556;52.222;4.510;2023-07-02T06:55:11;100133.13;;;15.04;100.00
27014;BME280;14556;52.222;4.510;2023-07-02T06:57:44;100130.44;;;15.04;100.00
27014;BME280;14556;52.222;4.510;2023-07-02T07:00:12;100143.97;;;15.09;100.00
27014;BME280;14556;52.222;4.510;2023-07-02T07:02:39;100139.72;;;15.13;100.00
27014;BME280;14556;52.222;4.510;2023-07-02T07:05:06;100158.09;;;15.16;100.00
27014;BME280;14556;52.222;4.510;2023-07-02T07:07:32;100157.91;;;15.23;100.00
27014;BME280;14556;52.222;4.510;2023-07-02T07:09:59;100159.94;;;15.33;100.00
27014;BME280;14556;52.222;4.510;2023-07-02T07:12:25;100161.41;;;15.41;100.00
27014;BME280;14556;52.222;4.510;2023-07-02T07:14:52;100144.59;;;15.33;100.00
27014;BME280;14556;52.222;4.510;2023-07-02T07:17:19;100160.75;;;15.33;100.00
27014;BME280;14556;52.222;4.510;2023-07-02T07:19:45;100162.53;;;15.45;100.00
27014;BME280;14556;52.222;4.510;2023-07-02T07:22:12;100165.78;;;15.47;100.00
27014;BME280;14556;52.222;4.510;2023-07-02T07:24:41;100164.72;;;15.48;100.00
27014;BME280;14556;52.222;4.510;2023-07-02T07:27:07;100175.44;;;15.43;100.00
27014;BME280;14556;52.222;4.510;2023-07-02T07:29:34;100185.56;;;15.53;100.00
27014;BME280;14556;52.222;4.510;2023-07-02T07:32:00;100174.28;;;15.56;100.00
27014;BME280;14556;52.222;4.510;2023-07-02T07:34:27;100180.41;;;15.51;100.00
27014;BME280;14556;52.222;4.510;2023-07-02T07:36:54;100177.53;;;15.58;100.00
27014;BME280;14556;52.222;4.510;2023-07-02T07:39:20;100181.75;;;15.71;100.00
27014;BME280;14556;52.222;4.510;2023-07-02T07:41:47;100182.44;;;15.83;100.00
27014;BME280;14556;52.222;4.510;2023-07-02T07:44:14;100180.56;;;15.84;100.00
27014;BME280;14556;52.222;4.510;2023-07-02T07:46:41;100192.44;;;15.83;100.00
27014;BME280;14556;52.222;4.510;2023-07-02T07:49:08;100182.94;;;15.80;100.00
27014;BME280;14556;52.222;4.510;2023-07-02T07:51:34;100186.59;;;15.91;100.00
27014;BME280;14556;52.222;4.510;2023-07-02T07:54:03;100188.94;;;16.05;100.00
27014;BME280;14556;52.222;4.510;2023-07-02T07:56:29;100179.72;;;16.01;100.00
27014;BME280;14556;52.222;4.510;2023-07-02T07:58:56;100179.59;;;16.13;100.00
27014;BME280;14556;52.222;4.510;2023-07-02T08:01:22;100185.28;;;16.16;100.00
27014;BME280;14556;52.222;4.510;2023-07-02T08:03:49;100184.75;;;16.14;100.00
27014;BME280;14556;52.222;4.510;2023-07-02T08:06:15;100189.63;;;16.17;100.00
27014;BME280;14556;52.222;4.510;2023-07-02T08:08:42;100200.03;;;16.31;100.00
27014;BME280;14556;52.222;4.510;2023-07-02T08:11:09;100201.78;;;16.42;100.00
27014;BME280;14556;52.222;4.510;2023-07-02T08:13:35;100185.28;;;16.39;100.00
27014;BME280;14556;52.222;4.510;2023-07-02T08:16:02;100195.41;;;16.54;100.00
27014;BME280;14556;52.222;4.510;2023-07-02T08:18:29;100207.63;;;16.62;100.00
27014;BME280;14556;52.222;4.510;2023-07-02T08:20:55;100202.28;;;16.67;100.00
27014;BME280;14556;52.222;4.510;2023-07-02T08:23:21;100208.28;;;16.74;100.00
27014;BME280;14556;52.222;4.510;2023-07-02T08:25:48;100206.75;;;16.84;100.00
27014;BME280;14556;52.222;4.510;2023-07-02T08:28:15;100205.63;;;16.79;100.00
27014;BME280;14556;52.222;4.510;2023-07-02T08:30:41;100210.09;;;16.96;100.00
27014;BME280;14556;52.222;4.510;2023-07-02T08:33:07;100208.13;;;16.86;100.00
27014;BME280;14556;52.222;4.510;2023-07-02T08:35:34;100210.88;;;16.91;100.00
27014;BME280;14556;52.222;4.510;2023-07-02T08:38:01;100216.66;;;17.06;100.00
27014;BME280;14556;52.222;4.510;2023-07-02T08:40:27;100215.59;;;17.07;100.00
27014;BME280;14556;52.222;4.510;2023-07-02T08:42:55;100220.22;;;17.11;100.00
27014;BME280;14556;52.222;4.510;2023-07-02T08:45:23;100223.09;;;16.99;100.00
27014;BME280;14556;52.222;4.510;2023-07-02T08:47:51;100225.16;;;17.20;100.00
27014;BME280;14556;52.222;4.510;2023-07-02T08:50:20;100229.25;;;17.22;100.00
27014;BME280;14556;52.222;4.510;2023-07-02T08:52:46;100231.47;;;17.31;100.00
27014;BME280;14556;52.222;4.510;2023-07-02T08:55:13;100230.19;;;17.38;100.00
27014;BME280;14556;52.222;4.510;2023-07-02T08:57:40;100225.59;;;17.44;100.00
27014;BME280;14556;52.222;4.510;2023-07-02T09:00:16;100218.06;;;17.46;100.00
27014;BME280;14556;52.222;4.510;2023-07-02T09:02:42;100235.03;;;17.85;100.00
27014;BME280;14556;52.222;4.510;2023-07-02T09:05:09;100239.78;;;18.10;100.00
27014;BME280;14556;52.222;4.510;2023-07-02T09:07:49;100238.78;;;18.27;100.00
27014;BME280;14556;52.222;4.510;2023-07-02T09:10:30;100237.16;;;18.31;100.00
27014;BME280;14556;52.222;4.510;2023-07-02T09:13:07;100235.56;;;18.41;100.00
27014;BME280;14556;52.222;4.510;2023-07-02T09:15:38;100237.47;;;18.45;100.00
27014;BME280;14556;52.222;4.510;2023-07-02T09:20:44;100237.75;;;18.49;100.00
27014;BME280;14556;52.222;4.510;2023-07-02T09:23:11;100241.00;;;18.51;100.00
27014;BME280;14556;52.222;4.510;2023-07-02T09:25:40;100237.53;;;18.82;100.00
27014;BME280;14556;52.222;4.510;2023-07-02T09:28:22;100244.59;;;19.09;100.00
27014;BME280;14556;52.222;4.510;2023-07-02T09:30:55;100249.50;;;19.33;100.00
27014;BME280;14556;52.222;4.510;2023-07-02T09:33:26;100251.06;;;19.65;100.00
27014;BME280;14556;52.222;4.510;2023-07-02T09:35:54;100240.25;;;19.55;93.37
27014;BME280;14556;52.222;4.510;2023-07-02T09:38:21;100240.50;;;19.59;97.43
27014;BME280;14556;52.222;4.510;2023-07-02T09:40:52;100245.88;;;19.85;97.71
27014;BME280;14556;52.222;4.510;2023-07-02T09:43:19;100238.00;;;19.88;86.36
27014;BME280;14556;52.222;4.510;2023-07-02T09:45:47;100229.28;;;19.97;89.22
27014;BME280;14556;52.222;4.510;2023-07-02T09:48:15;100241.28;;;19.80;99.29
27014;BME280;14556;52.222;4.510;2023-07-02T09:50:47;100251.03;;;19.81;96.79
27014;BME280;14556;52.222;4.510;2023-07-02T09:53:15;100232.78;;;20.02;82.44
27014;BME280;14556;52.222;4.510;2023-07-02T09:55:43;100225.69;;;20.22;84.11
27014;BME280;14556;52.222;4.510;2023-07-02T09:58:10;100233.63;;;20.08;83.11
27014;BME280;14556;52.222;4.510;2023-07-02T10:00:38;100240.44;;;19.90;86.29
27014;BME280;14556;52.222;4.510;2023-07-02T10:03:05;100239.09;;;19.82;95.02
27014;BME280;14556;52.222;4.510;2023-07-02T10:05:33;100244.25;;;19.84;91.50
27014;BME280;14556;52.222;4.510;2023-07-02T10:08:15;100249.66;;;20.04;94.38
27014;BME280;14556;52.222;4.510;2023-07-02T10:10:44;100241.41;;;20.25;89.02
27014;BME280;14556;52.222;4.510;2023-07-02T10:13:12;100241.72;;;20.19;80.43
27014;BME280;14556;52.222;4.510;2023-07-02T10:15:38;100244.22;;;19.99;80.93
27014;BME280;14556;52.222;4.510;2023-07-02T10:18:06;100260.22;;;20.06;96.04
27014;BME280;14556;52.222;4.510;2023-07-02T10:20:35;100248.00;;;19.98;87.55
27014;BME280;14556;52.222;4.510;2023-07-02T10:23:04;100259.94;;;20.08;98.10
27014;BME280;14556;52.222;4.510;2023-07-02T10:25:32;100269.59;;;20.40;95.59
27014;BME280;14556;52.222;4.510;2023-07-02T10:28:01;100259.56;;;20.81;87.16
27014;BME280;14556;52.222;4.510;2023-07-02T10:30:36;100240.25;;;20.82;76.94
27014;BME280;14556;52.222;4.510;2023-07-02T10:33:07;100250.78;;;21.29;80.66
27014;BME280;14556;52.222;4.510;2023-07-02T10:35:35;100250.72;;;21.64;74.80
27014;BME280;14556;52.222;4.510;2023-07-02T10:38:02;100255.56;;;21.97;72.89
27014;BME280;14556;52.222;4.510;2023-07-02T10:40:33;100246.75;;;22.05;67.34
27014;BME280;14556;52.222;4.510;2023-07-02T10:42:59;100251.66;;;21.79;67.76
27014;BME280;14556;52.222;4.510;2023-07-02T10:45:33;100267.34;;;21.62;77.71
27014;BME280;14556;52.222;4.510;2023-07-02T10:48:02;100264.06;;;21.01;71.97
27014;BME280;14556;52.222;4.510;2023-07-02T10:50:30;100270.34;;;20.91;86.14
27014;BME280;14556;52.222;4.510;2023-07-02T10:52:57;100274.75;;;20.87;82.73
27014;BME280;14556;52.222;4.510;2023-07-02T10:55:24;100269.91;;;20.23;84.94
27014;BME280;14556;52.222;4.510;2023-07-02T10:58:05;100278.13;;;19.97;89.02
27014;BME280;14556;52.222;4.510;2023-07-02T11:00:33;100272.50;;;19.72;85.87
27014;BME280;14556;52.222;4.510;2023-07-02T11:02:59;100281.94;;;20.01;100.00
27014;BME280;14556;52.222;4.510;2023-07-02T11:05:26;100282.66;;;20.33;91.95
27014;BME280;14556;52.222;4.510;2023-07-02T11:08:07;100264.75;;;20.26;83.22
27014;BME280;14556;52.222;4.510;2023-07-02T11:10:35;100282.66;;;20.33;86.53
27014;BME280;14556;52.222;4.510;2023-07-02T11:13:18;100282.44;;;20.19;94.90
27014;BME280;14556;52.222;4.510;2023-07-02T11:15:45;100283.78;;;20.21;98.43
27014;BME280;14556;52.222;4.510;2023-07-02T11:18:16;100266.16;;;20.19;76.90
27014;BME280;14556;52.222;4.510;2023-07-02T11:20:44;100289.69;;;20.39;95.43
27014;BME280;14556;52.222;4.510;2023-07-02T11:23:19;100278.91;;;20.74;76.29
27014;BME280;14556;52.222;4.510;2023-07-02T11:26:00;100274.59;;;20.68;78.41
27014;BME280;14556;52.222;4.510;2023-07-02T11:28:28;100289.75;;;20.74;85.17
27014;BME280;14556;52.222;4.510;2023-07-02T11:30:55;100294.63;;;20.77;82.27
27014;BME280;14556;52.222;4.510;2023-07-02T11:33:51;100289.53;;;20.65;75.81
27014;BME280;14556;52.222;4.510;2023-07-02T11:36:22;100293.78;;;20.87;78.13
27014;BME280;14556;52.222;4.510;2023-07-02T11:38:55;100282.06;;;20.86;84.29
27014;BME280;14556;52.222;4.510;2023-07-02T11:41:21;100300.88;;;20.77;88.64
27014;BME280;14556;52.222;4.510;2023-07-02T11:43:48;100292.81;;;20.62;76.49
27014;BME280;14556;52.222;4.510;2023-07-02T11:46:14;100290.69;;;20.53;83.53
27014;BME280;14556;52.222;4.510;2023-07-02T11:48:41;100285.81;;;20.56;91.46
27014;BME280;14556;52.222;4.510;2023-07-02T11:51:08;100285.97;;;20.75;86.32
27014;BME280;14556;52.222;4.510;2023-07-02T11:53:35;100294.13;;;20.75;77.38
27014;BME280;14556;52.222;4.510;2023-07-02T11:56:01;100284.66;;;20.67;84.42
27014;BME280;14556;52.222;4.510;2023-07-02T11:58:28;100285.97;;;20.75;76.04
27014;BME280;14556;52.222;4.510;2023-07-02T12:00:54;100297.97;;;20.63;80.65
27014;BME280;14556;52.222;4.510;2023-07-02T12:03:21;100286.31;;;20.58;79.52
27014;BME280;14556;52.222;4.510;2023-07-02T12:05:47;100294.72;;;20.61;73.79
27014;BME280;14556;52.222;4.510;2023-07-02T12:08:14;100299.31;;;20.71;81.35
27014;BME280;14556;52.222;4.510;2023-07-02T12:10:41;100290.59;;;20.74;71.77
27014;BME280;14556;52.222;4.510;2023-07-02T12:13:08;100311.47;;;20.79;75.55
27014;BME280;14556;52.222;4.510;2023-07-02T12:15:34;100295.19;;;20.74;70.51
27014;BME280;14556;52.222;4.510;2023-07-02T12:18:01;100313.03;;;20.96;74.09
27014;BME280;14556;52.222;4.510;2023-07-02T12:20:27;100311.91;;;21.02;74.89
27014;BME280;14556;52.222;4.510;2023-07-02T12:22:54;100305.59;;;21.07;72.95
27014;BME280;14556;52.222;4.510;2023-07-02T12:25:22;100322.00;;;20.96;79.65
27014;BME280;14556;52.222;4.510;2023-07-02T12:27:49;100328.88;;;20.78;71.36
27014;BME280;14556;52.222;4.510;2023-07-02T12:30:15;100327.72;;;20.89;72.75
27014;BME280;14556;52.222;4.510;2023-07-02T12:32:45;100303.50;;;20.93;74.64
27014;BME280;14556;52.222;4.510;2023-07-02T12:35:11;100311.16;;;20.86;70.00
27014;BME280;14556;52.222;4.510;2023-07-02T12:37:45;100331.00;;;20.86;74.64
27014;BME280;14556;52.222;4.510;2023-07-02T12:40:13;100324.44;;;20.98;78.05
27014;BME280;14556;52.222;4.510;2023-07-02T12:42:44;100325.72;;;21.11;72.40
27014;BME280;14556;52.222;4.510;2023-07-02T12:45:11;100318.28;;;21.22;73.50
27014;BME280;14556;52.222;4.510;2023-07-02T12:47:39;100317.72;;;21.25;74.32
27014;BME280;14556;52.222;4.510;2023-07-02T12:50:07;100324.47;;;21.33;74.09
27014;BME280;14556;52.222;4.510;2023-07-02T12:52:34;100310.50;;;21.45;72.04
27014;BME280;14556;52.222;4.510;2023-07-02T12:55:01;100334.16;;;21.44;74.32